createdAt,value
2023-10-16T00:01:56.262Z,26.93
2023-10-16T00:05:05.322Z,25.40
2023-10-16T00:08:09.311Z,35.87
2023-10-16T00:11:14.798Z,29.20
2023-10-16T00:14:25.435Z,26.03
2023-10-16T00:17:32.639Z,39.97
2023-10-16T00:20:38.078Z,48.07
2023-10-16T00:23:42.766Z,43.47
2023-10-16T00:26:50.780Z,28.33
2023-10-16T00:29:54.889Z,34.70
2023-10-16T00:32:59.691Z,46.17
2023-10-16T00:36:04.351Z,44.53
2023-10-16T00:39:15.853Z,32.53
2023-10-16T00:42:21.377Z,42.43
2023-10-16T00:45:25.710Z,50.63
2023-10-16T00:48:30.043Z,59.67
2023-10-16T00:51:40.846Z,30.80
2023-10-16T00:54:48.205Z,37.20
2023-10-16T00:57:54.050Z,32.53
2023-10-16T01:00:59.162Z,30.57
2023-10-16T01:04:02.955Z,33.90
2023-10-16T01:07:07.867Z,24.93
2023-10-16T01:10:12.736Z,17.53
2023-10-16T01:13:18.797Z,22.67
2023-10-16T01:16:23.303Z,17.17
2023-10-16T01:19:28.639Z,21.70
2023-10-16T01:22:36.535Z,13.73
2023-10-16T01:25:41.837Z,18.70
2023-10-16T01:28:45.686Z,20.30
2023-10-16T01:31:53.769Z,13.57
2023-10-16T01:34:58.167Z,15.53
2023-10-16T01:38:02.077Z,19.63
2023-10-16T01:41:08.608Z,11.40
2023-10-16T01:44:12.284Z,15.27
2023-10-16T01:47:17.160Z,8.73
2023-10-16T01:50:24.543Z,9.03
2023-10-16T01:53:34.202Z,11.40
2023-10-16T01:56:39.450Z,8.20
2023-10-16T01:59:44.449Z,10.77
2023-10-16T02:02:48.572Z,10.33
2023-10-16T02:05:52.802Z,12.73
2023-10-16T02:08:57.478Z,8.17
2023-10-16T02:12:02.925Z,4.43
2023-10-16T02:15:10.096Z,8.63
2023-10-16T02:18:24.606Z,18.93
2023-10-16T02:21:28.451Z,10.73
2023-10-16T02:24:32.830Z,9.10
2023-10-16T02:27:38.428Z,5.90
2023-10-16T02:30:43.314Z,5.97
2023-10-16T02:33:51.900Z,5.17
2023-10-16T02:36:56.718Z,3.70
2023-10-16T02:40:00.557Z,3.90
2023-10-16T02:43:15.142Z,10.07
2023-10-16T02:46:23.088Z,5.57
2023-10-16T02:49:27.137Z,8.20
2023-10-16T02:52:31.825Z,4.10
2023-10-16T02:55:36.650Z,5.17
2023-10-16T02:58:44.318Z,8.90
2023-10-16T03:01:52.138Z,7.77
2023-10-16T03:05:11.494Z,6.83
2023-10-16T03:08:19.488Z,7.50
2023-10-16T03:11:23.395Z,8.30
2023-10-16T03:14:46.299Z,8.67
2023-10-16T03:17:52.037Z,9.70
2023-10-16T03:21:07.288Z,8.63
2023-10-16T03:24:12.230Z,5.93
2023-10-16T03:27:28.596Z,8.27
2023-10-16T03:30:34.829Z,14.87
2023-10-16T03:33:39.855Z,18.57
2023-10-16T03:36:43.927Z,40.40
2023-10-16T03:39:48.011Z,31.67
2023-10-16T03:42:52.287Z,35.30
2023-10-16T03:45:59.832Z,15.67
2023-10-16T03:49:04.588Z,9.07
2023-10-16T03:52:09.292Z,15.07
2023-10-16T03:55:24.656Z,16.50
2023-10-16T03:58:28.686Z,43.17
2023-10-16T04:01:39.033Z,29.50
2023-10-16T04:04:43.059Z,28.13
2023-10-16T04:07:46.931Z,16.97
2023-10-16T04:10:51.211Z,18.57
2023-10-16T04:13:55.527Z,18.30
2023-10-16T04:17:02.268Z,9.10
2023-10-16T04:20:20.808Z,19.53
2023-10-16T04:23:38.895Z,9.80
2023-10-16T04:26:58.514Z,10.47
2023-10-16T04:30:32.473Z,12.40
2023-10-16T04:33:49.832Z,16.37
2023-10-16T04:36:54.434Z,8.70
2023-10-16T04:40:16.621Z,6.27
2023-10-16T04:43:38.801Z,15.63
2023-10-16T04:46:59.419Z,11.53
2023-10-16T04:50:12.665Z,16.47
2023-10-16T04:53:15.516Z,12.27
2023-10-16T04:56:31.773Z,8.90
2023-10-16T04:59:55.454Z,14.67
2023-10-16T05:03:21.116Z,12.07
2023-10-16T05:06:39.733Z,13.03
2023-10-16T05:10:01.003Z,11.17
2023-10-16T05:13:25.928Z,23.63
2023-10-16T05:16:37.652Z,18.57
2023-10-16T05:19:48.325Z,18.30
2023-10-16T05:23:11.273Z,7.10
2023-10-16T05:26:32.510Z,16.00
2023-10-16T05:29:56.157Z,10.37
2023-10-16T05:33:17.053Z,14.70
2023-10-16T05:36:38.302Z,11.83
2023-10-16T05:40:00.758Z,11.73
2023-10-16T05:43:21.837Z,15.30
2023-10-16T05:46:42.910Z,18.77
2023-10-16T05:50:04.191Z,20.20
2023-10-16T05:53:25.398Z,23.73
2023-10-16T05:56:48.011Z,22.17
2023-10-16T06:00:08.955Z,31.47
2023-10-16T06:03:33.374Z,11.63
2023-10-16T06:06:54.803Z,28.27
2023-10-16T06:10:15.710Z,16.93
2023-10-16T06:13:38.390Z,44.20
2023-10-16T06:16:43.082Z,15.83
2023-10-16T06:19:47.009Z,8.40
2023-10-16T06:22:52.977Z,18.77
2023-10-16T06:25:57.048Z,15.63
2023-10-16T06:29:02.346Z,12.57
2023-10-16T06:32:09.606Z,11.20
2023-10-16T06:35:18.187Z,4.77
2023-10-16T06:38:24.420Z,14.43
2023-10-16T06:41:28.146Z,15.47
2023-10-16T06:44:35.832Z,7.93
2023-10-16T06:47:49.123Z,23.33
2023-10-16T06:50:56.098Z,11.67
2023-10-16T06:54:02.788Z,11.67
2023-10-16T06:57:12.555Z,12.97
2023-10-16T07:00:24.430Z,13.83
2023-10-16T07:03:29.739Z,15.47
2023-10-16T07:06:35.010Z,10.53
2023-10-16T07:09:39.507Z,7.33
2023-10-16T07:12:58.292Z,13.07
2023-10-16T07:16:05.707Z,11.47
2023-10-16T07:19:14.640Z,16.33
2023-10-16T07:22:18.524Z,14.40
2023-10-16T07:25:27.692Z,6.40
2023-10-16T07:28:33.372Z,10.27
2023-10-16T07:31:38.735Z,21.07
2023-10-16T07:34:42.481Z,4.47
2023-10-16T07:37:50.372Z,5.77
2023-10-16T07:40:55.156Z,2.23
2023-10-16T07:43:59.035Z,10.27
2023-10-16T07:47:07.651Z,4.53
2023-10-16T07:50:12.791Z,11.27
2023-10-16T07:53:18.782Z,4.13
2023-10-16T07:56:30.252Z,11.30
2023-10-16T07:59:37.487Z,9.90
2023-10-16T08:02:46.697Z,11.37
2023-10-16T08:05:50.502Z,6.50
2023-10-16T08:09:15.369Z,22.03
2023-10-16T08:12:21.108Z,11.67
2023-10-16T08:15:26.309Z,8.37
2023-10-16T08:18:34.510Z,9.60
2023-10-16T08:21:41.014Z,21.70
2023-10-16T08:24:59.240Z,11.93
2023-10-16T08:28:20.873Z,7.37
2023-10-16T08:31:27.926Z,12.37
2023-10-16T08:34:36.631Z,9.93
2023-10-16T08:37:51.201Z,4.87
2023-10-16T08:41:07.666Z,7.50
2023-10-16T08:44:16.540Z,7.57
2023-10-16T08:47:26.139Z,5.30
2023-10-16T08:50:43.236Z,6.27
2023-10-16T08:53:47.371Z,5.30
2023-10-16T08:56:55.355Z,12.63
2023-10-16T09:00:00.471Z,3.47
2023-10-16T09:03:06.444Z,8.73
2023-10-16T09:06:15.272Z,10.90
2023-10-16T09:09:19.619Z,4.40
2023-10-16T09:12:27.825Z,4.50
2023-10-16T09:15:31.847Z,4.60
2023-10-16T09:18:37.461Z,4.67
2023-10-16T09:21:45.117Z,3.77
2023-10-16T09:24:53.465Z,3.47
2023-10-16T09:27:57.434Z,2.77
2023-10-16T09:31:11.814Z,2.07
2023-10-16T09:34:19.701Z,6.33
2023-10-16T09:37:33.399Z,13.03
2023-10-16T09:40:41.480Z,3.13
2023-10-16T09:43:46.038Z,5.77
2023-10-16T09:46:56.617Z,5.90
2023-10-16T09:50:02.272Z,4.70
2023-10-16T09:53:09.369Z,12.27
2023-10-16T09:56:15.220Z,12.10
2023-10-16T09:59:28.187Z,13.07
2023-10-16T10:02:41.151Z,11.40
2023-10-16T10:05:56.742Z,24.97
2023-10-16T10:09:17.692Z,7.60
2023-10-16T10:12:44.888Z,29.25
2023-10-16T10:15:53.927Z,8.37
2023-10-16T10:19:02.851Z,8.43
2023-10-16T10:22:12.732Z,3.30
2023-10-16T10:25:27.519Z,3.20
2023-10-16T10:28:34.048Z,15.48
2023-10-16T10:31:40.233Z,9.00
2023-10-16T10:34:45.350Z,5.18
2023-10-16T10:37:49.958Z,5.32
2023-10-16T10:41:17.449Z,4.57
2023-10-16T10:44:21.485Z,5.82
2023-10-16T10:47:32.602Z,5.50
2023-10-16T10:50:39.791Z,2.05
2023-10-16T10:53:57.190Z,3.85
2023-10-16T10:57:08.928Z,2.85
2023-10-16T11:00:26.590Z,3.55
2023-10-16T11:03:34.815Z,8.65
2023-10-16T11:06:44.047Z,4.55
2023-10-16T11:09:48.963Z,3.90
2023-10-16T11:13:05.625Z,4.28
2023-10-16T11:16:11.628Z,6.63
2023-10-16T11:19:25.110Z,3.42
2023-10-16T11:22:29.659Z,3.83
2023-10-16T11:25:33.682Z,3.85
2023-10-16T11:28:39.269Z,3.35
2023-10-16T11:31:43.567Z,2.33
2023-10-16T11:34:51.405Z,4.65
2023-10-16T11:38:01.046Z,2.90
2023-10-16T11:41:13.600Z,4.03
2023-10-16T11:44:20.607Z,5.15
2023-10-16T11:47:33.737Z,2.03
2023-10-16T11:50:40.518Z,3.20
2023-10-16T11:53:45.169Z,2.90
2023-10-16T11:56:49.836Z,2.08
2023-10-16T11:59:57.076Z,5.05
2023-10-16T12:03:01.068Z,2.25
2023-10-16T12:06:08.657Z,6.88
2023-10-16T12:09:14.731Z,7.20
2023-10-16T12:12:22.207Z,6.35
2023-10-16T12:15:27.550Z,10.55
2023-10-16T12:18:32.854Z,7.25
2023-10-16T12:21:36.730Z,7.05
2023-10-16T12:24:41.083Z,5.53
2023-10-16T12:27:44.904Z,6.38
2023-10-16T12:30:50.339Z,9.23
2023-10-16T12:33:54.293Z,4.50
2023-10-16T12:36:58.930Z,5.53
2023-10-16T12:40:22.806Z,5.07
2023-10-16T12:43:28.914Z,3.58
2023-10-16T12:46:34.183Z,2.70
2023-10-16T12:49:38.002Z,8.20
2023-10-16T12:52:43.858Z,3.22
2023-10-16T12:55:50.546Z,6.05
2023-10-16T12:58:54.359Z,8.95
2023-10-16T13:02:01.093Z,5.60
2023-10-16T13:05:07.588Z,6.75
2023-10-16T13:08:11.600Z,4.85
2023-10-16T13:11:18.031Z,7.43
2023-10-16T13:14:21.920Z,10.07
2023-10-16T13:17:27.242Z,6.00
2023-10-16T13:20:31.394Z,7.57
2023-10-16T13:23:46.701Z,3.30
2023-10-16T13:26:52.412Z,2.97
2023-10-16T13:29:57.271Z,5.18
2023-10-16T13:33:08.700Z,7.32
2023-10-16T13:36:13.480Z,4.05
2023-10-16T13:39:21.319Z,5.13
2023-10-16T13:42:25.199Z,5.68
2023-10-16T13:45:29.440Z,7.93
2023-10-16T13:48:34.763Z,3.15
2023-10-16T13:51:38.761Z,6.65
2023-10-16T13:54:44.398Z,3.40
2023-10-16T13:57:48.977Z,6.80
2023-10-16T14:00:53.059Z,3.70
2023-10-16T14:04:00.187Z,3.20
2023-10-16T14:07:09.958Z,5.20
2023-10-16T14:10:15.150Z,4.95
2023-10-16T14:13:23.255Z,6.22
2023-10-16T14:16:28.837Z,5.60
2023-10-16T14:19:34.758Z,4.90
2023-10-16T14:22:40.218Z,6.90
2023-10-16T14:25:49.406Z,8.40
2023-10-16T14:28:55.558Z,4.50
2023-10-16T14:32:00.408Z,6.07
2023-10-16T14:35:06.669Z,4.28
2023-10-16T14:38:11.068Z,5.43
2023-10-16T14:41:18.734Z,4.10
2023-10-16T14:44:25.411Z,5.28
2023-10-16T14:47:29.728Z,5.57
2023-10-16T14:50:35.104Z,5.28
2023-10-16T14:53:40.926Z,4.82
2023-10-16T14:56:45.744Z,6.22
2023-10-16T14:59:50.794Z,5.63
2023-10-16T15:02:54.823Z,8.75
2023-10-16T15:06:01.634Z,3.42
2023-10-16T15:09:11.144Z,4.93
2023-10-16T15:12:15.512Z,5.18
2023-10-16T15:15:19.586Z,5.57
2023-10-16T15:18:23.632Z,7.50
2023-10-16T15:21:29.035Z,11.98
2023-10-16T15:24:33.238Z,5.78
2023-10-16T15:27:37.249Z,10.45
2023-10-16T15:30:44.085Z,10.47
2023-10-16T15:33:49.049Z,8.33
2023-10-16T15:36:54.497Z,7.33
2023-10-16T15:39:58.971Z,7.30
2023-10-16T15:43:04.282Z,8.00
2023-10-16T15:46:27.051Z,4.50
2023-10-16T15:49:31.423Z,3.87
2023-10-16T15:52:36.668Z,6.17
2023-10-16T15:55:40.918Z,3.53
2023-10-16T15:58:44.749Z,8.07
2023-10-16T16:01:50.064Z,5.67
2023-10-16T16:04:56.055Z,10.40
2023-10-16T16:08:04.901Z,6.60
2023-10-16T16:11:15.198Z,7.60
2023-10-16T16:14:21.803Z,9.97
2023-10-16T16:17:26.853Z,8.83
2023-10-16T16:20:31.168Z,7.73
2023-10-16T16:23:36.937Z,5.67
2023-10-16T16:26:40.808Z,6.40
2023-10-16T16:29:45.146Z,5.67
2023-10-16T16:32:50.306Z,6.40
2023-10-16T16:35:54.246Z,7.97
2023-10-16T16:39:00.088Z,17.70
2023-10-16T16:42:05.920Z,7.77
2023-10-16T16:45:10.601Z,8.23
2023-10-16T16:48:15.705Z,9.70
2023-10-16T16:51:19.973Z,16.33
2023-10-16T16:54:25.490Z,14.47
2023-10-16T16:57:30.545Z,14.50
2023-10-16T17:00:34.857Z,13.10
2023-10-16T17:03:39.347Z,16.83
2023-10-16T17:06:44.316Z,12.63
2023-10-16T17:09:49.645Z,8.57
2023-10-16T17:12:54.288Z,7.47
2023-10-16T17:15:58.640Z,6.60
2023-10-16T17:19:02.628Z,7.73
2023-10-16T17:22:06.585Z,7.30
2023-10-16T17:25:12.836Z,4.70
2023-10-16T17:28:18.340Z,7.27
2023-10-16T17:31:22.271Z,5.17
2023-10-16T17:34:27.090Z,9.10
2023-10-16T17:37:32.196Z,6.63
2023-10-16T17:40:37.982Z,5.73
2023-10-16T17:43:41.782Z,7.07
2023-10-16T17:46:48.286Z,6.40
2023-10-16T17:49:56.509Z,9.10
2023-10-16T17:53:00.318Z,4.57
2023-10-16T17:56:07.017Z,6.30
2023-10-16T17:59:12.676Z,8.10
2023-10-16T18:02:16.553Z,10.87
2023-10-16T18:05:21.323Z,4.67
2023-10-16T18:08:27.355Z,5.80
2023-10-16T18:11:35.730Z,6.40
2023-10-16T18:14:40.273Z,6.40
2023-10-16T18:17:44.315Z,5.63
2023-10-16T18:20:50.261Z,5.23
2023-10-16T18:23:54.162Z,8.10
2023-10-16T18:27:01.041Z,5.77
2023-10-16T18:30:05.801Z,7.60
2023-10-16T18:33:10.256Z,4.30
2023-10-16T18:36:14.351Z,6.00
2023-10-16T18:39:19.412Z,4.70
2023-10-16T18:42:24.922Z,5.43
2023-10-16T18:45:29.117Z,13.30
2023-10-16T18:48:33.626Z,9.33
2023-10-16T18:51:37.687Z,8.03
2023-10-16T18:54:41.588Z,6.60
2023-10-16T18:57:47.045Z,4.33
2023-10-16T19:00:51.101Z,10.00
2023-10-16T19:03:55.408Z,9.30
2023-10-16T19:06:59.233Z,9.77
2023-10-16T19:10:03.347Z,9.20
2023-10-16T19:13:13.318Z,13.43
2023-10-16T19:16:17.323Z,13.73
2023-10-16T19:19:21.207Z,13.27
2023-10-16T19:22:25.074Z,9.40
2023-10-16T19:25:29.064Z,9.53
2023-10-16T19:28:35.073Z,8.57
2023-10-16T19:31:40.384Z,15.80
2023-10-16T19:34:45.858Z,9.57
2023-10-16T19:37:50.561Z,10.00
2023-10-16T19:41:04.014Z,9.87
2023-10-16T19:44:11.712Z,8.30
2023-10-16T19:47:15.628Z,7.83
2023-10-16T19:50:20.057Z,10.33
2023-10-16T19:53:23.983Z,6.60
2023-10-16T19:56:27.737Z,8.43
2023-10-16T19:59:33.877Z,7.60
2023-10-16T20:02:39.396Z,7.57
2023-10-16T20:05:43.537Z,8.37
2023-10-16T20:08:48.084Z,10.60
2023-10-16T20:11:55.365Z,12.07
2023-10-16T20:15:03.098Z,10.67
2023-10-16T20:18:12.219Z,8.27
2023-10-16T20:21:19.973Z,12.93
2023-10-16T20:24:26.321Z,9.33
2023-10-16T20:27:32.563Z,10.67
2023-10-16T20:30:38.691Z,9.80
2023-10-16T20:33:44.328Z,8.33
2023-10-16T20:36:48.188Z,10.00
2023-10-16T20:39:53.689Z,7.10
2023-10-16T20:42:57.780Z,11.47
2023-10-16T20:46:07.821Z,7.93
2023-10-16T20:49:11.779Z,9.53
2023-10-16T20:52:15.720Z,6.60
2023-10-16T20:55:21.417Z,9.83
2023-10-16T20:58:25.468Z,8.27
2023-10-16T21:01:31.553Z,8.27
2023-10-16T21:04:35.715Z,6.27
2023-10-16T21:07:39.907Z,8.30
2023-10-16T21:10:43.793Z,4.77
2023-10-16T21:13:47.635Z,7.33
2023-10-16T21:16:53.006Z,11.53
2023-10-16T21:19:57.978Z,10.57
2023-10-16T21:23:02.015Z,13.70
2023-10-16T21:26:14.886Z,10.87
2023-10-16T21:29:19.018Z,10.20
2023-10-16T21:32:24.617Z,11.63
2023-10-16T21:35:28.511Z,5.00
2023-10-16T21:38:32.687Z,2.27
2023-10-16T21:41:36.750Z,5.50
2023-10-16T21:44:41.137Z,6.27
2023-10-16T21:47:46.967Z,5.77
2023-10-16T21:50:51.850Z,6.47
2023-10-16T21:53:55.744Z,7.00
2023-10-16T21:56:59.749Z,5.83
2023-10-16T22:00:12.983Z,8.57
2023-10-16T22:03:19.177Z,5.37
2023-10-16T22:06:23.194Z,9.77
2023-10-16T22:09:30.820Z,4.43
2023-10-16T22:12:35.109Z,9.80
2023-10-16T22:15:39.721Z,8.60
2023-10-16T22:18:45.151Z,7.10
2023-10-16T22:21:49.488Z,6.00
2023-10-16T22:24:54.619Z,8.53
2023-10-16T22:27:58.525Z,5.70
2023-10-16T22:31:05.798Z,5.60
2023-10-16T22:34:11.726Z,8.77
2023-10-16T22:37:15.568Z,8.20
2023-10-16T22:40:21.392Z,5.40
2023-10-16T22:43:25.830Z,6.90
2023-10-16T22:46:30.208Z,9.47
2023-10-16T22:49:36.856Z,5.90
2023-10-16T22:52:40.968Z,3.47
2023-10-16T22:55:45.728Z,4.77
2023-10-16T22:58:50.052Z,4.37
2023-10-16T23:01:54.000Z,5.80
2023-10-16T23:04:59.971Z,7.73
2023-10-16T23:08:05.419Z,4.20
2023-10-16T23:11:19.316Z,6.37
2023-10-16T23:14:23.329Z,5.13
2023-10-16T23:17:29.183Z,9.67
2023-10-16T23:20:34.827Z,4.97
2023-10-16T23:23:38.659Z,5.60
2023-10-16T23:26:42.482Z,7.77
2023-10-16T23:29:46.535Z,6.47
2023-10-16T23:32:51.864Z,8.80
2023-10-16T23:36:00.253Z,6.57
2023-10-16T23:39:06.085Z,4.53
2023-10-16T23:42:18.739Z,9.93
2023-10-16T23:45:23.631Z,10.00
2023-10-16T23:48:32.726Z,8.50
2023-10-16T23:51:38.620Z,5.30
2023-10-16T23:54:42.683Z,7.17
2023-10-16T23:57:50.769Z,4.07
